createdAt,value
2023-03-08T00:03:30.212Z,16.40
2023-03-08T00:06:51.214Z,19.80
2023-03-08T00:10:39.182Z,31.10
2023-03-08T00:14:09.514Z,18.30
2023-03-08T00:18:05.204Z,27.40
2023-03-08T00:21:29.180Z,16.50
2023-03-08T00:24:50.215Z,17.10
2023-03-08T00:28:21.133Z,16.30
2023-03-08T00:31:29.246Z,18.10
2023-03-08T00:34:58.179Z,25.50
2023-03-08T00:38:49.203Z,22.30
2023-03-08T00:42:15.141Z,22.70
2023-03-08T00:45:32.231Z,21.70
2023-03-08T00:48:46.171Z,19.20
2023-03-08T00:52:26.173Z,21.40
2023-03-08T00:55:56.198Z,19.30
2023-03-08T00:59:06.223Z,15.00
2023-03-08T01:02:21.209Z,15.50
2023-03-08T01:09:33.193Z,8.10
2023-03-08T01:13:05.180Z,4.90
2023-03-08T01:16:33.224Z,5.60
2023-03-08T01:20:16.215Z,6.20
2023-03-08T01:23:36.113Z,7.10
2023-03-08T01:27:10.249Z,6.60
2023-03-08T01:34:18.523Z,5.10
2023-03-08T01:37:40.240Z,4.20
2023-03-08T01:44:49.182Z,5.10
2023-03-08T01:48:10.195Z,17.50
2023-03-08T01:51:30.165Z,8.40
2023-03-08T01:55:04.185Z,6.90
2023-03-08T01:58:41.152Z,7.90
2023-03-08T02:02:28.437Z,8.10
2023-03-08T02:05:38.462Z,13.00
2023-03-08T02:09:00.162Z,14.10
2023-03-08T02:12:22.197Z,18.60
2023-03-08T02:16:15.189Z,16.80
2023-03-08T02:19:55.494Z,16.90
2023-03-08T02:23:00.914Z,16.20
2023-03-08T02:26:45.222Z,12.90
2023-03-08T02:30:02.194Z,9.00
2023-03-08T02:33:15.129Z,12.90
2023-03-08T02:36:56.203Z,9.60
2023-03-08T02:43:33.229Z,9.70
2023-03-08T02:46:16.676Z,9.00
2023-03-08T02:48:46.146Z,9.70
2023-03-08T02:51:14.136Z,8.20
2023-03-08T02:53:42.148Z,7.90
2023-03-08T02:56:10.051Z,6.30
2023-03-08T02:58:37.918Z,6.00
2023-03-08T03:01:14.632Z,5.60
2023-03-08T03:03:43.284Z,3.80
2023-03-08T03:06:16.670Z,4.90
2023-03-08T03:08:46.638Z,3.50
2023-03-08T03:11:17.495Z,7.30
2023-03-08T03:13:47.851Z,6.80
2023-03-08T03:16:16.643Z,7.30
2023-03-08T03:18:44.654Z,5.00
2023-03-08T03:21:14.192Z,7.30
2023-03-08T03:23:42.160Z,6.10
2023-03-08T03:26:17.556Z,6.60
2023-03-08T03:28:46.283Z,8.70
2023-03-08T03:31:17.910Z,8.20
2023-03-08T03:33:47.453Z,7.90
2023-03-08T03:36:19.241Z,10.10
2023-03-08T03:39:17.196Z,7.20
2023-03-08T03:42:43.154Z,6.60
2023-03-08T03:46:00.441Z,6.10
2023-03-08T03:49:06.155Z,8.20
2023-03-08T03:52:33.164Z,11.30
2023-03-08T03:55:56.194Z,7.10
2023-03-08T03:59:42.203Z,7.80
2023-03-08T04:03:30.212Z,8.60
2023-03-08T04:07:12.239Z,6.70
2023-03-08T04:10:37.539Z,7.90
2023-03-08T04:13:06.619Z,8.20
2023-03-08T04:15:34.981Z,6.50
2023-03-08T04:18:03.997Z,6.90
2023-03-08T04:20:33.088Z,6.40
2023-03-08T04:23:01.481Z,8.20
2023-03-08T04:25:34.178Z,7.10
2023-03-08T04:28:02.321Z,8.30
2023-03-08T04:30:30.870Z,9.90
2023-03-08T04:32:59.166Z,10.30
2023-03-08T04:35:31.946Z,5.20
2023-03-08T04:37:59.823Z,11.20
2023-03-08T04:40:28.530Z,9.10
2023-03-08T04:42:59.192Z,10.60
2023-03-08T04:45:32.561Z,11.80
2023-03-08T04:48:03.447Z,7.00
2023-03-08T04:50:32.011Z,7.30
2023-03-08T04:53:00.013Z,5.00
2023-03-08T04:55:28.934Z,4.90
2023-03-08T04:57:57.228Z,14.50
2023-03-08T05:00:26.343Z,14.70
2023-03-08T05:02:54.407Z,15.30
2023-03-08T05:05:22.837Z,18.50
2023-03-08T05:07:52.597Z,8.00
2023-03-08T05:10:21.008Z,8.70
2023-03-08T05:12:48.887Z,17.90
2023-03-08T05:15:16.874Z,18.20
2023-03-08T05:17:44.787Z,20.10
2023-03-08T05:20:14.766Z,20.20
2023-03-08T05:22:57.177Z,20.10
2023-03-08T05:25:26.093Z,20.80
2023-03-08T05:27:54.197Z,23.00
2023-03-08T05:30:23.196Z,17.50
2023-03-08T05:32:51.663Z,21.80
2023-03-08T05:35:20.002Z,26.10
2023-03-08T05:37:48.384Z,20.20
2023-03-08T05:40:16.424Z,20.30
2023-03-08T05:42:44.691Z,15.40
2023-03-08T05:45:13.263Z,18.90
2023-03-08T05:47:41.555Z,26.40
2023-03-08T05:50:10.813Z,13.60
2023-03-08T05:52:42.477Z,16.50
2023-03-08T05:55:11.810Z,17.20
2023-03-08T05:57:40.052Z,17.80
2023-03-08T06:00:08.762Z,17.70
2023-03-08T06:02:43.763Z,11.20
2023-03-08T06:05:12.380Z,12.30
2023-03-08T06:07:43.618Z,15.00
2023-03-08T06:10:12.868Z,14.40
2023-03-08T06:12:40.819Z,13.40
2023-03-08T06:15:10.251Z,18.00
2023-03-08T06:17:38.595Z,13.30
2023-03-08T06:20:07.339Z,16.40
2023-03-08T06:22:36.273Z,24.90
2023-03-08T06:25:37.270Z,26.10
2023-03-08T11:37:31.277Z,5.00
2023-03-08T11:40:23.481Z,2.90
2023-03-08T11:43:30.041Z,22.40
2023-03-08T11:46:33.772Z,6.60
2023-03-08T11:49:24.382Z,2.90
2023-03-08T11:52:02.541Z,1.80
2023-03-08T11:54:50.300Z,6.20
2023-03-08T11:57:19.855Z,3.30
2023-03-08T11:59:56.843Z,7.60
2023-03-08T12:02:33.795Z,4.60
2023-03-08T12:05:20.051Z,4.10
2023-03-08T12:07:56.090Z,4.60
2023-03-08T12:10:36.626Z,1.40
2023-03-08T12:13:33.093Z,4.60
2023-03-08T12:16:43.357Z,3.80
2023-03-08T12:19:38.036Z,4.30
2023-03-08T12:22:22.148Z,4.70
2023-03-08T12:25:04.493Z,1.00
2023-03-08T12:27:56.470Z,3.00
2023-03-08T12:30:44.798Z,1.60
2023-03-08T12:33:21.006Z,3.30
2023-03-08T12:36:43.986Z,4.20
2023-03-08T12:39:56.485Z,4.20
2023-03-08T12:42:43.217Z,16.60
2023-03-08T12:45:32.457Z,5.80
2023-03-08T12:48:39.377Z,7.30
2023-03-08T12:51:52.178Z,5.00
2023-03-08T12:54:35.480Z,1.20
2023-03-08T12:57:23.982Z,2.00
2023-03-08T13:00:25.897Z,1.50
2023-03-08T13:03:31.480Z,6.70
2023-03-08T13:06:16.475Z,1.30
2023-03-08T13:08:53.516Z,1.50
2023-03-08T13:11:38.869Z,2.10
2023-03-08T13:14:44.828Z,1.80
2023-03-08T13:17:36.135Z,5.60
2023-03-08T13:20:46.060Z,5.70
2023-03-08T13:23:28.303Z,7.20
2023-03-08T13:26:47.566Z,4.60
2023-03-08T13:29:45.119Z,4.30
2023-03-08T13:32:27.126Z,1.70
2023-03-08T13:35:07.920Z,1.70
2023-03-08T13:37:39.892Z,3.10
2023-03-08T13:40:21.496Z,1.90
2023-03-08T13:42:58.637Z,2.30
2023-03-08T13:47:58.425Z,6.30
2023-03-08T13:50:32.709Z,6.60
2023-03-08T13:53:10.383Z,3.30
2023-03-08T13:56:03.012Z,6.60
2023-03-08T13:58:40.304Z,5.10
2023-03-08T14:01:25.659Z,6.10
2023-03-08T14:03:59.526Z,5.50
2023-03-08T14:06:57.227Z,10.00
2023-03-08T14:09:32.085Z,3.10
2023-03-08T14:12:11.252Z,2.00
2023-03-08T14:14:58.285Z,9.30
2023-03-08T14:17:31.306Z,4.20
2023-03-08T14:20:07.663Z,4.70
2023-03-08T14:23:09.878Z,3.00
2023-03-08T14:25:42.357Z,1.80
2023-03-08T14:28:43.988Z,4.10
2023-03-08T14:31:37.803Z,2.40
2023-03-08T14:34:35.488Z,2.10
2023-03-08T14:37:49.147Z,5.10
2023-03-08T14:40:33.465Z,4.90
2023-03-08T14:43:05.559Z,5.30
2023-03-08T14:45:51.777Z,6.10
2023-03-08T14:48:29.692Z,5.60
2023-03-08T14:51:30.350Z,2.90
2023-03-08T14:54:27.874Z,2.80
2023-03-08T14:59:33.036Z,4.00
2023-03-08T15:02:01.368Z,1.80
2023-03-08T15:04:30.981Z,4.90
2023-03-08T15:07:04.037Z,4.10
2023-03-08T15:09:32.483Z,2.70
2023-03-08T15:12:01.510Z,5.60
2023-03-08T15:14:30.633Z,2.90
2023-03-08T15:16:58.592Z,3.60
2023-03-08T15:19:26.878Z,4.80
2023-03-08T15:21:55.125Z,3.90
2023-03-08T15:24:25.961Z,7.30
2023-03-08T15:26:55.835Z,4.40
2023-03-08T15:29:27.605Z,5.20
2023-03-08T15:32:00.514Z,7.20
2023-03-08T15:34:28.868Z,3.70
2023-03-08T15:36:57.031Z,3.40
2023-03-08T15:39:25.245Z,6.50
2023-03-08T15:41:53.916Z,7.80
2023-03-08T15:44:22.111Z,2.80
2023-03-08T15:46:52.609Z,4.10
2023-03-08T15:49:20.913Z,6.40
2023-03-08T15:51:49.073Z,4.40
2023-03-08T15:54:17.112Z,6.00
2023-03-08T15:56:45.309Z,3.20
2023-03-08T15:59:13.309Z,2.90
2023-03-08T16:01:41.289Z,3.50
2023-03-08T16:04:09.159Z,3.90
2023-03-08T16:06:37.062Z,6.30
2023-03-08T16:09:05.077Z,6.00
2023-03-08T16:11:33.249Z,5.80
2023-03-08T16:14:01.165Z,3.80
2023-03-08T16:16:44.329Z,4.30
2023-03-08T16:19:13.652Z,4.60
2023-03-08T16:21:41.631Z,5.50
2023-03-08T16:24:11.390Z,3.90
2023-03-08T16:26:39.310Z,4.50
2023-03-08T16:29:09.121Z,4.60
2023-03-08T16:31:37.083Z,8.20
2023-03-08T16:34:05.799Z,4.80
2023-03-08T16:36:33.891Z,4.40
2023-03-08T16:39:02.012Z,5.20
2023-03-08T16:41:30.157Z,9.30
2023-03-08T16:43:58.974Z,4.70
2023-03-08T16:46:27.917Z,3.70
2023-03-08T16:48:56.717Z,3.70
2023-03-08T16:51:28.433Z,4.40
2023-03-08T16:53:56.380Z,3.00
2023-03-08T16:56:27.357Z,3.80
2023-03-08T16:58:58.102Z,5.90
2023-03-08T17:01:27.040Z,5.20
2023-03-08T17:03:56.481Z,6.00
2023-03-08T17:06:28.183Z,5.50
2023-03-08T17:08:57.957Z,7.80
2023-03-08T17:11:28.469Z,5.10
2023-03-08T17:13:59.676Z,5.70
2023-03-08T17:16:29.732Z,5.10
2023-03-08T17:19:00.826Z,4.30
2023-03-08T17:21:29.872Z,4.70
2023-03-08T17:23:59.537Z,7.00
2023-03-08T17:26:27.786Z,5.80
2023-03-08T17:28:55.799Z,8.70
2023-03-08T17:31:24.028Z,6.10
2023-03-08T17:33:52.441Z,6.50
2023-03-08T17:36:20.886Z,4.70
2023-03-08T17:38:53.176Z,4.50
2023-03-08T17:41:22.848Z,5.50
2023-03-08T17:43:51.907Z,7.40
2023-03-08T17:46:23.991Z,5.80
2023-03-08T17:48:53.155Z,6.30
2023-03-08T17:51:24.672Z,5.80
2023-03-08T17:53:53.325Z,7.60
2023-03-08T17:56:27.047Z,8.10
2023-03-08T17:58:56.875Z,4.50
2023-03-08T18:01:28.527Z,8.00
2023-03-08T18:03:57.818Z,11.10
2023-03-08T18:06:33.308Z,5.90
2023-03-08T18:09:05.100Z,7.40
2023-03-08T18:11:37.791Z,7.10
2023-03-08T18:14:08.253Z,4.70
2023-03-08T18:16:36.977Z,6.10
2023-03-08T18:19:05.827Z,5.10
2023-03-08T18:21:36.002Z,6.40
2023-03-08T18:24:05.405Z,4.60
2023-03-08T18:26:34.255Z,8.40
2023-03-08T18:29:02.223Z,5.10
2023-03-08T18:31:32.228Z,4.80
2023-03-08T18:34:00.506Z,5.80
2023-03-08T18:36:28.472Z,5.50
2023-03-08T18:38:56.466Z,6.40
2023-03-08T18:41:29.853Z,7.20
2023-03-08T18:44:00.366Z,4.30
2023-03-08T18:46:31.051Z,6.70
2023-03-08T18:49:07.435Z,5.40
2023-03-08T18:51:38.602Z,4.10
2023-03-08T18:54:09.176Z,5.20
2023-03-08T18:56:37.375Z,4.50
2023-03-08T18:59:07.556Z,3.90
2023-03-08T19:01:36.557Z,5.50
2023-03-08T19:04:06.414Z,4.10
2023-03-08T19:06:36.085Z,5.40
2023-03-08T19:09:09.557Z,5.20
2023-03-08T19:11:38.561Z,4.70
2023-03-08T19:14:07.768Z,3.60
2023-03-08T19:16:36.336Z,5.60
2023-03-08T19:19:08.917Z,4.00
2023-03-08T19:21:41.312Z,4.80
2023-03-08T19:24:13.200Z,6.90
2023-03-08T19:26:43.229Z,8.00
2023-03-08T19:29:18.322Z,6.30
2023-03-08T19:31:53.706Z,4.70
2023-03-08T19:34:26.199Z,4.90
2023-03-08T19:36:55.374Z,6.60
2023-03-08T19:39:27.813Z,4.80
2023-03-08T19:41:59.982Z,6.10
2023-03-08T19:44:29.341Z,7.30
2023-03-08T19:46:58.173Z,5.70
2023-03-08T19:49:29.763Z,9.70
2023-03-08T19:51:59.716Z,4.40
2023-03-08T19:54:29.486Z,6.70
2023-03-08T19:56:59.177Z,5.40
2023-03-08T19:59:27.331Z,4.10
2023-03-08T20:01:56.476Z,3.80
2023-03-08T20:04:25.578Z,7.00
2023-03-08T20:06:53.714Z,4.20
2023-03-08T20:09:22.613Z,4.40
2023-03-08T20:11:57.641Z,5.50
2023-03-08T20:14:28.098Z,8.90
2023-03-08T20:16:57.079Z,7.00
2023-03-08T20:19:31.816Z,7.50
2023-03-08T20:22:01.069Z,8.80
2023-03-08T20:24:29.109Z,4.30
2023-03-08T20:26:57.117Z,5.80
2023-03-08T20:29:25.147Z,9.70
2023-03-08T20:31:55.889Z,4.00
2023-03-08T20:34:25.614Z,5.70
2023-03-08T20:36:53.665Z,6.30
2023-03-08T20:39:23.110Z,9.20
2023-03-08T20:41:51.177Z,7.50
2023-03-08T20:44:19.075Z,7.00
2023-03-08T20:46:48.977Z,9.70
2023-03-08T20:49:17.128Z,11.70
2023-03-08T20:51:45.105Z,5.50
2023-03-08T20:54:13.034Z,6.10
2023-03-08T20:56:41.163Z,4.10
2023-03-08T20:59:09.176Z,8.00
2023-03-08T21:01:37.490Z,5.00
2023-03-08T21:04:06.189Z,4.50
2023-03-08T21:06:34.152Z,6.00
2023-03-08T21:09:02.342Z,5.00
2023-03-08T21:11:30.308Z,7.10
2023-03-08T21:13:58.287Z,5.30
2023-03-08T21:16:28.279Z,8.40
2023-03-08T21:19:27.204Z,5.10
2023-03-08T21:22:53.177Z,18.70
2023-03-08T21:26:31.349Z,8.70
2023-03-08T21:29:46.219Z,8.60
2023-03-08T21:33:28.207Z,7.80
2023-03-08T21:36:42.203Z,8.80
2023-03-08T21:40:14.170Z,9.90
2023-03-08T21:43:57.713Z,11.70
2023-03-08T21:47:17.252Z,13.80
2023-03-08T21:50:25.218Z,4.00
2023-03-08T21:53:38.194Z,8.70
2023-03-08T21:57:16.219Z,8.40
2023-03-08T22:04:38.166Z,7.20
2023-03-08T22:08:32.201Z,4.70
2023-03-08T22:12:03.180Z,5.10
2023-03-08T22:15:40.204Z,4.10
2023-03-08T22:18:54.115Z,6.10
2023-03-08T22:22:29.245Z,3.50
2023-03-08T22:26:25.530Z,6.30
2023-03-08T22:32:51.191Z,4.10
2023-03-08T22:36:28.127Z,3.60
2023-03-08T22:40:20.193Z,3.10
2023-03-08T22:43:52.128Z,4.60
2023-03-08T22:47:25.192Z,4.50
2023-03-08T22:51:10.692Z,10.50
2023-03-08T22:54:46.227Z,9.60
2023-03-08T23:02:15.225Z,4.80
2023-03-08T23:06:04.291Z,5.90
2023-03-08T23:09:30.193Z,3.60
2023-03-08T23:13:02.185Z,3.80
2023-03-08T23:16:36.251Z,4.40
2023-03-08T23:20:15.202Z,5.20
2023-03-08T23:23:52.178Z,2.40
2023-03-08T23:30:40.216Z,7.90
2023-03-08T23:34:21.152Z,7.10
2023-03-08T23:37:59.199Z,6.70
2023-03-08T23:41:34.183Z,3.60
2023-03-08T23:45:01.188Z,3.00
2023-03-08T23:51:46.213Z,6.50
2023-03-08T23:55:04.186Z,2.40
2023-03-08T23:58:42.248Z,4.40
